createdAt,value
2022-11-19T00:01:08.687Z,7.95
2022-11-19T00:03:36.821Z,6.97
2022-11-19T00:06:05.831Z,7.50
2022-11-19T00:08:33.229Z,6.57
2022-11-19T00:11:09.298Z,6.18
2022-11-19T00:13:36.899Z,6.97
2022-11-19T00:16:05.757Z,6.70
2022-11-19T00:18:33.125Z,6.53
2022-11-19T00:21:10.659Z,7.50
2022-11-19T00:23:37.972Z,6.78
2022-11-19T00:26:06.062Z,7.35
2022-11-19T00:28:33.237Z,6.75
2022-11-19T00:31:08.140Z,7.63
2022-11-19T00:33:35.628Z,6.05
2022-11-19T00:36:03.155Z,5.97
2022-11-19T00:38:30.968Z,6.15
2022-11-19T00:40:58.305Z,7.20
2022-11-19T00:43:44.676Z,6.35
2022-11-19T00:46:11.996Z,7.00
2022-11-19T00:48:41.861Z,6.10
2022-11-19T00:51:09.566Z,7.25
2022-11-19T00:53:36.951Z,6.55
2022-11-19T00:56:05.124Z,6.45
2022-11-19T00:58:32.358Z,7.10
2022-11-19T01:00:59.481Z,6.32
2022-11-19T01:03:26.664Z,6.40
2022-11-19T01:05:53.736Z,6.22
2022-11-19T01:08:20.875Z,6.63
2022-11-19T01:10:48.098Z,7.25
2022-11-19T01:13:34.197Z,5.97
2022-11-19T01:16:01.585Z,5.40
2022-11-19T01:18:29.269Z,5.85
2022-11-19T01:20:56.474Z,5.97
2022-11-19T01:23:23.606Z,6.47
2022-11-19T01:25:50.678Z,6.22
2022-11-19T01:28:17.882Z,5.45
2022-11-19T01:30:44.934Z,5.97
2022-11-19T01:33:12.020Z,4.93
2022-11-19T01:35:39.215Z,4.88
2022-11-19T01:38:06.934Z,5.63
2022-11-19T01:40:34.444Z,5.63
2022-11-19T01:43:01.533Z,4.90
2022-11-19T01:45:34.091Z,4.97
2022-11-19T01:48:10.554Z,4.90
2022-11-19T01:50:39.938Z,5.20
2022-11-19T01:53:09.486Z,5.03
2022-11-19T01:55:37.662Z,4.63
2022-11-19T01:58:05.708Z,4.38
2022-11-19T02:00:32.794Z,4.03
2022-11-19T02:02:59.965Z,3.97
2022-11-19T02:05:27.208Z,3.83
2022-11-19T02:07:55.844Z,3.42
2022-11-19T02:10:30.624Z,3.70
2022-11-19T02:13:03.251Z,3.42
2022-11-19T02:15:34.561Z,3.47
2022-11-19T02:18:04.593Z,2.97
2022-11-19T02:21:01.309Z,3.40
2022-11-19T02:23:28.542Z,3.53
2022-11-19T02:26:14.656Z,4.15
2022-11-19T02:28:41.706Z,3.47
2022-11-19T02:31:14.797Z,3.20
2022-11-19T02:33:55.848Z,3.28
2022-11-19T02:36:26.404Z,3.28
2022-11-19T02:38:59.092Z,3.42
2022-11-19T02:41:35.092Z,2.95
2022-11-19T02:44:35.528Z,3.00
2022-11-19T02:47:04.868Z,3.38
2022-11-19T02:49:33.773Z,3.67
2022-11-19T02:52:01.637Z,3.30
2022-11-19T02:54:29.187Z,2.92
2022-11-19T02:56:58.895Z,3.47
2022-11-19T02:59:47.359Z,2.60
2022-11-19T03:02:33.979Z,2.53
2022-11-19T03:05:01.420Z,2.90
2022-11-19T03:07:28.729Z,2.60
2022-11-19T03:09:56.938Z,3.15
2022-11-19T03:12:37.544Z,2.85
2022-11-19T03:15:38.471Z,2.65
2022-11-19T03:18:07.745Z,2.50
2022-11-19T03:20:39.937Z,3.80
2022-11-19T03:23:11.565Z,2.78
2022-11-19T03:25:50.789Z,1.95
2022-11-19T03:28:21.250Z,2.78
2022-11-19T03:30:48.928Z,2.80
2022-11-19T03:33:19.353Z,2.53
2022-11-19T03:35:49.436Z,2.67
2022-11-19T03:38:19.466Z,2.83
2022-11-19T03:40:47.711Z,3.63
2022-11-19T03:43:17.467Z,3.60
2022-11-19T03:45:46.044Z,3.10
2022-11-19T03:48:14.261Z,2.55
2022-11-19T03:50:53.706Z,2.67
2022-11-19T03:53:24.915Z,2.97
2022-11-19T03:56:00.368Z,2.63
2022-11-19T03:58:29.561Z,2.90
2022-11-19T04:00:56.738Z,2.53
2022-11-19T04:03:23.866Z,2.80
2022-11-19T04:05:50.936Z,3.20
2022-11-19T04:08:18.095Z,3.38
2022-11-19T04:10:45.166Z,3.55
2022-11-19T04:13:12.320Z,3.15
2022-11-19T04:15:39.662Z,3.70
2022-11-19T04:18:06.835Z,3.05
2022-11-19T04:20:33.992Z,3.65
2022-11-19T04:23:01.120Z,3.10
2022-11-19T04:25:28.185Z,3.00
2022-11-19T04:27:55.245Z,3.22
2022-11-19T04:30:22.402Z,4.18
2022-11-19T04:32:49.461Z,3.47
2022-11-19T04:35:21.399Z,3.13
2022-11-19T04:37:49.193Z,3.65
2022-11-19T04:40:16.433Z,4.07
2022-11-19T04:42:43.915Z,3.70
2022-11-19T04:45:11.553Z,3.50
2022-11-19T04:47:38.709Z,3.13
2022-11-19T04:50:06.093Z,3.33
2022-11-19T04:52:37.683Z,3.20
2022-11-19T04:55:07.573Z,3.30
2022-11-19T04:57:34.710Z,3.97
2022-11-19T05:00:01.839Z,3.80
2022-11-19T05:02:29.056Z,3.20
2022-11-19T05:04:56.175Z,3.63
2022-11-19T05:07:23.423Z,3.83
2022-11-19T05:09:50.685Z,3.50
2022-11-19T05:12:17.842Z,3.88
2022-11-19T05:14:45.592Z,3.67
2022-11-19T05:17:12.670Z,3.28
2022-11-19T05:19:39.816Z,3.55
2022-11-19T05:22:07.286Z,3.25
2022-11-19T05:24:34.645Z,3.13
2022-11-19T05:27:01.731Z,3.63
2022-11-19T05:29:28.810Z,3.72
2022-11-19T05:31:55.885Z,3.53
2022-11-19T05:34:23.089Z,3.28
2022-11-19T05:36:50.222Z,3.58
2022-11-19T05:39:21.856Z,2.97
2022-11-19T05:44:16.604Z,2.80
2022-11-19T05:46:43.700Z,3.95
2022-11-19T05:49:11.426Z,2.90
2022-11-19T05:51:38.617Z,2.90
2022-11-19T05:54:05.750Z,4.00
2022-11-19T05:56:33.276Z,3.47
2022-11-19T05:59:00.376Z,3.92
2022-11-19T06:01:28.309Z,3.45
2022-11-19T06:03:55.567Z,3.47
2022-11-19T06:06:22.810Z,3.33
2022-11-19T06:08:50.705Z,2.90
2022-11-19T06:11:36.623Z,3.75
2022-11-19T06:14:03.785Z,3.88
2022-11-19T06:16:30.919Z,3.63
2022-11-19T06:18:57.981Z,4.03
2022-11-19T06:21:25.106Z,4.03
2022-11-19T06:23:52.212Z,3.97
2022-11-19T06:26:26.286Z,4.68
2022-11-19T06:28:53.396Z,4.45
2022-11-19T06:31:20.537Z,4.60
2022-11-19T06:33:48.000Z,4.95
2022-11-19T06:36:15.308Z,4.72
2022-11-19T06:38:42.386Z,4.82
2022-11-19T06:41:09.492Z,5.03
2022-11-19T06:43:36.543Z,4.57
2022-11-19T06:46:03.694Z,4.93
2022-11-19T06:48:30.747Z,5.03
2022-11-19T06:50:58.183Z,4.78
2022-11-19T06:53:25.296Z,4.85
2022-11-19T06:55:59.166Z,5.05
2022-11-19T06:58:26.330Z,3.65
2022-11-19T07:00:53.439Z,5.22
2022-11-19T07:03:20.771Z,5.20
2022-11-19T07:05:48.467Z,4.50
2022-11-19T07:08:15.721Z,5.10
2022-11-19T07:10:42.834Z,4.43
2022-11-19T07:13:09.943Z,5.07
2022-11-19T07:15:37.096Z,4.50
2022-11-19T07:18:04.249Z,3.55
2022-11-19T07:20:31.411Z,4.95
2022-11-19T07:22:59.472Z,4.00
2022-11-19T07:25:26.888Z,4.82
2022-11-19T07:27:54.017Z,5.93
2022-11-19T07:30:21.088Z,4.70
2022-11-19T07:32:48.158Z,5.65
2022-11-19T07:35:15.299Z,4.47
2022-11-19T07:37:42.354Z,4.80
2022-11-19T07:40:11.217Z,4.32
2022-11-19T07:42:50.476Z,4.25
2022-11-19T07:45:18.723Z,4.95
2022-11-19T07:47:45.891Z,5.32
2022-11-19T07:50:13.086Z,5.18
2022-11-19T07:52:40.290Z,5.55
2022-11-19T07:55:07.688Z,5.03
2022-11-19T07:57:34.852Z,4.97
2022-11-19T08:00:02.587Z,4.75
2022-11-19T08:02:29.697Z,5.25
2022-11-19T08:04:56.743Z,4.95
2022-11-19T08:07:23.919Z,5.05
2022-11-19T08:09:51.074Z,5.45
2022-11-19T08:12:21.137Z,5.38
2022-11-19T08:14:48.252Z,4.55
2022-11-19T08:17:34.308Z,5.35
2022-11-19T08:20:01.764Z,5.78
2022-11-19T08:22:29.832Z,5.15
2022-11-19T08:24:56.899Z,5.40
2022-11-19T08:27:24.021Z,4.13
2022-11-19T08:29:51.093Z,4.35
2022-11-19T08:32:18.228Z,4.43
2022-11-19T08:34:45.457Z,5.13
2022-11-19T08:37:13.586Z,4.53
2022-11-19T08:39:40.921Z,4.63
2022-11-19T08:42:28.135Z,4.45
2022-11-19T08:44:55.791Z,5.22
2022-11-19T08:47:22.854Z,4.65
2022-11-19T08:49:49.964Z,4.80
2022-11-19T08:52:17.021Z,4.85
2022-11-19T08:54:44.080Z,4.30
2022-11-19T08:57:11.270Z,3.58
2022-11-19T08:59:38.371Z,4.10
2022-11-19T09:02:05.425Z,4.13
2022-11-19T09:04:32.659Z,3.92
2022-11-19T09:06:59.894Z,3.90
2022-11-19T09:09:26.980Z,3.88
2022-11-19T09:11:55.664Z,4.00
2022-11-19T09:14:22.954Z,5.10
2022-11-19T09:16:50.192Z,5.00
2022-11-19T09:19:17.282Z,4.18
2022-11-19T09:21:44.529Z,4.38
2022-11-19T09:24:11.657Z,3.85
2022-11-19T09:26:38.775Z,3.72
2022-11-19T09:29:05.888Z,4.00
2022-11-19T09:31:33.416Z,4.22
2022-11-19T09:34:00.486Z,4.60
2022-11-19T09:36:27.877Z,4.03
2022-11-19T09:38:58.459Z,3.70
2022-11-19T09:41:44.757Z,4.03
2022-11-19T09:44:30.659Z,3.50
2022-11-19T09:46:57.824Z,3.15
2022-11-19T09:49:29.275Z,3.50
2022-11-19T09:52:04.396Z,3.25
2022-11-19T09:54:32.301Z,3.55
2022-11-19T09:57:04.340Z,3.05
2022-11-19T09:59:36.917Z,2.78
2022-11-19T10:02:13.600Z,3.22
2022-11-19T10:04:40.797Z,3.30
2022-11-19T10:07:21.243Z,2.83
2022-11-19T10:09:55.921Z,2.78
2022-11-19T10:12:41.940Z,3.40
2022-11-19T10:15:16.960Z,2.95
2022-11-19T10:17:49.530Z,3.88
2022-11-19T10:20:35.615Z,2.70
2022-11-19T10:23:06.145Z,3.60
2022-11-19T10:25:36.807Z,3.33
2022-11-19T10:28:13.772Z,2.85
2022-11-19T10:30:41.946Z,2.83
2022-11-19T10:33:14.514Z,3.30
2022-11-19T10:35:44.249Z,3.67
2022-11-19T10:38:19.527Z,3.28
2022-11-19T10:40:50.401Z,2.85
2022-11-19T10:43:23.558Z,3.13
2022-11-19T10:45:51.266Z,3.33
2022-11-19T10:48:23.846Z,2.90
2022-11-19T10:50:51.719Z,2.85
2022-11-19T10:53:21.337Z,3.10
2022-11-19T10:55:54.743Z,3.70
2022-11-19T10:58:30.792Z,3.03
2022-11-19T11:00:59.722Z,2.78
2022-11-19T11:03:33.806Z,3.40
2022-11-19T11:06:03.240Z,2.22
2022-11-19T11:08:30.328Z,2.70
2022-11-19T11:10:58.038Z,2.22
2022-11-19T11:14:09.797Z,2.70
2022-11-19T11:16:47.541Z,2.90
2022-11-19T11:19:19.331Z,3.05
2022-11-19T11:24:14.771Z,3.22
2022-11-19T11:26:41.986Z,3.38
2022-11-19T11:29:15.088Z,2.60
2022-11-19T11:31:45.918Z,3.05
2022-11-19T11:34:28.716Z,2.58
2022-11-19T11:36:56.732Z,2.92
2022-11-19T11:39:35.113Z,3.00
2022-11-19T11:42:05.757Z,2.58
2022-11-19T11:44:34.046Z,2.70
2022-11-19T11:47:11.091Z,2.35
2022-11-19T11:49:40.573Z,2.20
2022-11-19T11:52:08.262Z,3.00
2022-11-19T11:54:35.758Z,3.00
2022-11-19T11:57:29.084Z,2.42
2022-11-19T11:59:56.553Z,2.70
2022-11-19T12:02:32.442Z,2.83
2022-11-19T12:05:02.122Z,2.88
2022-11-19T12:07:37.624Z,2.80
2022-11-19T12:10:11.131Z,2.30
2022-11-19T12:12:42.411Z,2.92
2022-11-19T12:15:15.367Z,2.88
2022-11-19T12:17:42.485Z,2.63
2022-11-19T12:20:26.175Z,2.47
2022-11-19T12:22:59.201Z,2.53
2022-11-19T12:25:46.148Z,2.05
2022-11-19T12:28:32.470Z,2.22
2022-11-19T12:31:02.505Z,2.83
2022-11-19T12:33:49.861Z,3.08
2022-11-19T12:36:23.616Z,2.22
2022-11-19T12:38:59.548Z,2.72
2022-11-19T12:41:26.638Z,3.15
2022-11-19T12:43:58.868Z,2.60
2022-11-19T12:46:25.959Z,2.65
2022-11-19T12:49:13.271Z,2.80
2022-11-19T12:51:55.699Z,2.95
2022-11-19T12:54:35.182Z,2.70
2022-11-19T12:57:18.964Z,2.70
2022-11-19T12:59:54.282Z,2.38
2022-11-19T13:02:33.005Z,2.40
2022-11-19T13:05:02.852Z,2.30
2022-11-19T13:07:33.083Z,2.13
2022-11-19T13:10:03.865Z,2.47
2022-11-19T13:12:50.002Z,2.60
2022-11-19T13:15:23.397Z,2.67
2022-11-19T13:17:55.356Z,2.35
2022-11-19T13:20:32.230Z,3.47
2022-11-19T13:23:02.334Z,3.20
2022-11-19T13:25:36.879Z,2.80
2022-11-19T13:28:06.001Z,2.28
2022-11-19T13:30:34.727Z,2.35
2022-11-19T13:33:13.694Z,2.38
2022-11-19T13:35:46.578Z,3.08
2022-11-19T13:38:21.807Z,2.90
2022-11-19T13:40:54.692Z,2.40
2022-11-19T13:43:41.607Z,2.08
2022-11-19T13:46:11.855Z,2.17
2022-11-19T13:48:44.428Z,2.45
2022-11-19T13:51:23.207Z,3.03
2022-11-19T13:53:50.343Z,2.40
2022-11-19T13:56:18.012Z,2.45
2022-11-19T13:58:47.150Z,2.67
2022-11-19T14:01:33.094Z,2.75
2022-11-19T14:04:10.326Z,2.17
2022-11-19T14:06:58.267Z,2.22
2022-11-19T14:09:29.451Z,2.42
2022-11-19T14:11:57.091Z,2.20
2022-11-19T14:14:52.214Z,2.05
2022-11-19T14:17:38.301Z,2.40
2022-11-19T14:20:44.106Z,2.03
2022-11-19T14:23:30.192Z,2.40
2022-11-19T14:26:16.288Z,2.25
2022-11-19T14:28:51.203Z,2.95
2022-11-19T14:31:19.557Z,2.30
2022-11-19T14:33:49.677Z,2.45
2022-11-19T14:36:21.475Z,2.25
2022-11-19T14:38:50.478Z,2.72
2022-11-19T14:41:27.804Z,2.40
2022-11-19T14:44:10.221Z,2.65
2022-11-19T14:46:38.987Z,2.60
2022-11-19T14:49:07.309Z,3.33
2022-11-19T14:51:36.235Z,2.92
2022-11-19T14:54:08.539Z,2.38
2022-11-19T14:56:38.291Z,3.03
2022-11-19T14:59:22.566Z,3.00
2022-11-19T15:01:49.645Z,2.92
2022-11-19T15:04:16.867Z,2.92
2022-11-19T15:06:45.772Z,2.97
2022-11-19T15:09:12.923Z,3.10
2022-11-19T15:12:00.278Z,3.60
2022-11-19T15:14:31.702Z,3.42
2022-11-19T15:17:04.392Z,4.00
2022-11-19T15:19:44.122Z,3.65
2022-11-19T15:22:23.635Z,3.50
2022-11-19T15:25:15.070Z,3.38
2022-11-19T15:27:48.320Z,4.40
2022-11-19T15:30:18.359Z,4.18
2022-11-19T15:33:10.206Z,5.10
2022-11-19T15:35:56.343Z,4.55
2022-11-19T15:38:23.420Z,4.82
2022-11-19T15:40:52.016Z,4.22
2022-11-19T15:43:25.571Z,4.30
2022-11-19T15:45:57.558Z,3.67
2022-11-19T15:48:31.863Z,4.03
2022-11-19T15:50:59.325Z,4.72
2022-11-19T15:53:28.124Z,4.53
2022-11-19T15:55:55.281Z,4.63
2022-11-19T15:58:26.305Z,4.57
2022-11-19T16:00:53.957Z,5.95
2022-11-19T16:03:22.024Z,4.10
2022-11-19T16:06:00.229Z,3.90
2022-11-19T16:08:28.129Z,4.53
2022-11-19T16:11:20.294Z,3.75
2022-11-19T16:14:13.414Z,3.65
2022-11-19T16:16:59.464Z,3.85
2022-11-19T16:19:26.544Z,3.95
2022-11-19T16:21:55.861Z,3.42
2022-11-19T16:24:43.488Z,3.88
2022-11-19T16:27:13.055Z,4.40
2022-11-19T16:29:41.694Z,4.32
2022-11-19T16:32:09.081Z,4.05
2022-11-19T16:34:37.082Z,3.83
2022-11-19T16:37:04.408Z,3.97
2022-11-19T16:39:32.271Z,3.80
2022-11-19T16:42:18.015Z,4.35
2022-11-19T16:44:49.367Z,4.55
2022-11-19T16:47:26.539Z,5.68
2022-11-19T16:49:54.013Z,7.28
2022-11-19T16:52:37.130Z,7.50
2022-11-19T16:55:24.304Z,9.40
2022-11-19T16:57:52.819Z,8.85
2022-11-19T17:00:21.366Z,9.13
2022-11-19T17:02:49.082Z,10.35
2022-11-19T17:05:20.356Z,8.48
2022-11-19T17:07:48.635Z,8.00
2022-11-19T17:10:31.593Z,8.38
2022-11-19T17:13:04.038Z,9.93
2022-11-19T17:15:34.250Z,14.07
2022-11-19T17:18:10.544Z,13.45
2022-11-19T17:20:37.617Z,14.70
2022-11-19T17:23:25.413Z,14.15
2022-11-19T17:25:54.985Z,13.43
2022-11-19T17:28:26.119Z,12.43
2022-11-19T17:30:54.837Z,10.35
2022-11-19T17:33:23.292Z,10.60
2022-11-19T17:35:50.496Z,9.35
2022-11-19T17:38:19.251Z,10.15
2022-11-19T17:40:47.785Z,8.52
2022-11-19T17:43:34.256Z,7.88
2022-11-19T17:46:01.498Z,7.28
2022-11-19T17:48:28.782Z,7.55
2022-11-19T17:50:56.395Z,7.20
2022-11-19T17:53:23.900Z,8.00
2022-11-19T17:55:52.706Z,9.80
2022-11-19T17:58:19.874Z,7.45
2022-11-19T18:00:47.049Z,8.23
2022-11-19T18:03:14.658Z,7.80
2022-11-19T18:05:44.284Z,7.45
2022-11-19T18:08:11.418Z,6.65
2022-11-19T18:10:38.477Z,7.15
2022-11-19T18:13:06.049Z,6.55
2022-11-19T18:15:33.130Z,7.32
2022-11-19T18:18:00.183Z,6.70
2022-11-19T18:20:27.234Z,6.43
2022-11-19T18:22:54.389Z,5.97
2022-11-19T18:25:24.408Z,5.88
2022-11-19T18:27:51.460Z,6.60
2022-11-19T18:30:18.592Z,6.03
2022-11-19T18:32:45.910Z,6.38
2022-11-19T18:35:17.942Z,6.75
2022-11-19T18:40:12.736Z,4.68
2022-11-19T18:42:59.824Z,5.00
2022-11-19T18:45:27.445Z,5.97
2022-11-19T18:47:54.509Z,6.35
2022-11-19T18:50:25.434Z,7.03
2022-11-19T18:52:56.639Z,6.45
2022-11-19T18:55:23.892Z,7.68
2022-11-19T18:57:50.928Z,8.50
2022-11-19T19:00:18.280Z,7.57
2022-11-19T19:02:45.514Z,8.43
2022-11-19T19:05:12.959Z,8.13
2022-11-19T19:07:40.076Z,7.13
2022-11-19T19:10:08.644Z,7.45
2022-11-19T19:12:35.757Z,6.93
2022-11-19T19:15:03.436Z,9.35
2022-11-19T19:17:31.255Z,7.80
2022-11-19T19:19:58.438Z,6.80
2022-11-19T19:22:25.692Z,6.70
2022-11-19T19:24:57.935Z,6.55
2022-11-19T19:27:25.741Z,7.25
2022-11-19T19:29:52.837Z,5.47
2022-11-19T19:32:19.971Z,6.57
2022-11-19T19:34:47.250Z,7.57
2022-11-19T19:37:14.364Z,7.72
2022-11-19T19:39:41.521Z,8.43
2022-11-19T19:42:08.854Z,9.73
2022-11-19T19:44:36.883Z,7.97
2022-11-19T19:47:04.629Z,6.25
2022-11-19T19:49:37.329Z,6.88
2022-11-19T19:52:06.182Z,6.75
2022-11-19T19:54:33.404Z,6.03
2022-11-19T19:57:00.546Z,7.18
2022-11-19T19:59:27.639Z,11.15
2022-11-19T20:01:55.182Z,8.82
2022-11-19T20:04:22.400Z,9.80
2022-11-19T20:06:51.612Z,13.05
2022-11-19T20:09:18.778Z,10.65
2022-11-19T20:11:45.885Z,7.80
2022-11-19T20:14:13.135Z,6.80
2022-11-19T20:16:40.814Z,6.10
2022-11-19T20:19:08.937Z,5.15
2022-11-19T20:21:36.596Z,5.32
2022-11-19T20:24:11.450Z,5.00
2022-11-19T20:26:40.279Z,5.30
2022-11-19T20:29:08.958Z,4.65
2022-11-19T20:31:36.163Z,4.88
2022-11-19T20:34:04.550Z,5.45
2022-11-19T20:36:32.874Z,4.85
2022-11-19T20:39:00.058Z,5.55
2022-11-19T20:41:46.471Z,6.93
2022-11-19T20:44:20.700Z,5.35
2022-11-19T20:46:58.202Z,5.85
2022-11-19T20:49:29.433Z,5.70
2022-11-19T20:51:59.468Z,5.93
2022-11-19T20:54:27.295Z,5.90
2022-11-19T20:56:55.122Z,6.97
2022-11-19T20:59:23.032Z,5.03
2022-11-19T21:01:50.710Z,6.93
2022-11-19T21:04:18.483Z,6.03
2022-11-19T21:06:45.690Z,7.20
2022-11-19T21:09:12.748Z,7.10
2022-11-19T21:11:39.911Z,8.10
2022-11-19T21:14:07.179Z,7.70
2022-11-19T21:16:34.376Z,8.80
2022-11-19T21:19:02.056Z,8.25
2022-11-19T21:21:29.138Z,10.48
2022-11-19T21:23:59.178Z,9.23
2022-11-19T21:26:27.304Z,10.45
2022-11-19T21:28:56.418Z,10.57
2022-11-19T21:31:37.903Z,11.32
2022-11-19T21:34:06.266Z,9.88
2022-11-19T21:36:33.488Z,10.48
2022-11-19T21:39:00.934Z,10.25
2022-11-19T21:41:28.120Z,11.27
2022-11-19T21:43:55.436Z,9.93
2022-11-19T21:46:22.571Z,10.27
2022-11-19T21:48:49.637Z,12.05
2022-11-19T21:51:21.470Z,10.10
2022-11-19T21:53:51.406Z,11.13
2022-11-19T21:56:18.486Z,10.50
2022-11-19T21:58:45.486Z,10.50
2022-11-19T22:01:12.614Z,12.40
2022-11-19T22:03:39.893Z,10.35
2022-11-19T22:06:08.499Z,11.65
2022-11-19T22:08:37.346Z,11.60
2022-11-19T22:11:24.714Z,13.02
2022-11-19T22:13:52.385Z,13.60
2022-11-19T22:16:19.643Z,12.85
2022-11-19T22:18:46.954Z,12.95
2022-11-19T22:21:15.509Z,15.05
2022-11-19T22:23:42.653Z,14.65
2022-11-19T22:26:10.567Z,14.43
2022-11-19T22:28:40.820Z,12.48
2022-11-19T22:31:08.036Z,12.27
2022-11-19T22:33:36.836Z,11.55
2022-11-19T22:36:09.871Z,12.05
2022-11-19T22:38:37.877Z,10.70
2022-11-19T22:41:06.552Z,11.75
2022-11-19T22:43:34.221Z,12.95
2022-11-19T22:46:01.652Z,13.07
2022-11-19T22:48:29.326Z,12.45
2022-11-19T22:50:56.398Z,10.75
2022-11-19T22:53:23.828Z,10.35
2022-11-19T22:55:51.278Z,12.45
2022-11-19T22:58:18.433Z,10.65
2022-11-19T23:00:47.108Z,10.52
2022-11-19T23:03:14.641Z,11.00
2022-11-19T23:05:42.230Z,10.43
2022-11-19T23:08:13.408Z,11.50
2022-11-19T23:10:43.381Z,10.35
2022-11-19T23:13:30.596Z,11.43
2022-11-19T23:16:00.612Z,11.65
2022-11-19T23:18:28.413Z,11.75
2022-11-19T23:20:59.690Z,11.15
2022-11-19T23:23:26.800Z,12.63
2022-11-19T23:25:57.601Z,14.32
2022-11-19T23:28:25.601Z,13.07
2022-11-19T23:30:53.495Z,11.63
2022-11-19T23:33:21.145Z,11.05
2022-11-19T23:35:48.241Z,10.40
2022-11-19T23:38:15.609Z,9.98
2022-11-19T23:40:43.074Z,10.13
2022-11-19T23:43:10.091Z,10.05
2022-11-19T23:45:37.808Z,10.55
2022-11-19T23:48:05.062Z,9.60
2022-11-19T23:50:32.727Z,9.73
2022-11-19T23:52:59.818Z,9.40
2022-11-19T23:55:26.907Z,8.85
2022-11-19T23:57:54.342Z,9.27
